sensor_id;sensor_type;location;lat;lon;timestamp;P1;durP1;ratioP1;P2;durP2;ratioP2
3916;SDS011;1973;50.518;7.318;2023-02-01T00:00:23;6.23;;;4.50;;
3916;SDS011;1973;50.518;7.318;2023-02-01T00:02:50;12.17;;;4.40;;
3916;SDS011;1973;50.518;7.318;2023-02-01T00:05:17;5.40;;;4.03;;
3916;SDS011;1973;50.518;7.318;2023-02-01T00:07:44;8.03;;;4.20;;
3916;SDS011;1973;50.518;7.318;2023-02-01T00:10:13;7.93;;;4.60;;
3916;SDS011;1973;50.518;7.318;2023-02-01T00:12:40;5.83;;;4.00;;
3916;SDS011;1973;50.518;7.318;2023-02-01T00:15:06;8.23;;;4.40;;
3916;SDS011;1973;50.518;7.318;2023-02-01T00:17:33;7.77;;;4.40;;
3916;SDS011;1973;50.518;7.318;2023-02-01T00:19:59;6.47;;;4.90;;
3916;SDS011;1973;50.518;7.318;2023-02-01T00:22:26;14.23;;;6.07;;
3916;SDS011;1973;50.518;7.318;2023-02-01T00:24:52;9.17;;;5.80;;
3916;SDS011;1973;50.518;7.318;2023-02-01T00:27:19;9.17;;;6.37;;
3916;SDS011;1973;50.518;7.318;2023-02-01T00:29:47;7.20;;;5.37;;
3916;SDS011;1973;50.518;7.318;2023-02-01T00:32:13;10.33;;;5.30;;
3916;SDS011;1973;50.518;7.318;2023-02-01T00:34:40;9.80;;;5.80;;
3916;SDS011;1973;50.518;7.318;2023-02-01T00:37:06;7.50;;;5.80;;
3916;SDS011;1973;50.518;7.318;2023-02-01T00:39:33;9.50;;;5.50;;
3916;SDS011;1973;50.518;7.318;2023-02-01T00:42:00;7.43;;;5.27;;
3916;SDS011;1973;50.518;7.318;2023-02-01T00:44:28;8.27;;;6.10;;
3916;SDS011;1973;50.518;7.318;2023-02-01T00:46:59;11.63;;;6.30;;
3916;SDS011;1973;50.518;7.318;2023-02-01T00:49:26;10.73;;;5.03;;
3916;SDS011;1973;50.518;7.318;2023-02-01T00:51:53;10.43;;;5.57;;
3916;SDS011;1973;50.518;7.318;2023-02-01T00:54:20;7.03;;;5.63;;
3916;SDS011;1973;50.518;7.318;2023-02-01T00:56:46;7.10;;;5.47;;
3916;SDS011;1973;50.518;7.318;2023-02-01T00:59:13;9.20;;;5.33;;
3916;SDS011;1973;50.518;7.318;2023-02-01T01:01:39;10.20;;;5.40;;
3916;SDS011;1973;50.518;7.318;2023-02-01T01:04:06;7.40;;;5.43;;
3916;SDS011;1973;50.518;7.318;2023-02-01T01:06:33;8.40;;;4.90;;
3916;SDS011;1973;50.518;7.318;2023-02-01T01:09:01;10.60;;;6.70;;
3916;SDS011;1973;50.518;7.318;2023-02-01T01:11:30;11.53;;;6.80;;
3916;SDS011;1973;50.518;7.318;2023-02-01T01:13:59;8.23;;;5.60;;
3916;SDS011;1973;50.518;7.318;2023-02-01T01:16:27;7.37;;;5.83;;
3916;SDS011;1973;50.518;7.318;2023-02-01T01:18:55;12.57;;;6.40;;
3916;SDS011;1973;50.518;7.318;2023-02-01T01:21:22;7.77;;;5.03;;
3916;SDS011;1973;50.518;7.318;2023-02-01T01:23:49;10.00;;;5.90;;
3916;SDS011;1973;50.518;7.318;2023-02-01T01:26:16;7.37;;;5.50;;
3916;SDS011;1973;50.518;7.318;2023-02-01T01:28:51;9.47;;;6.03;;
3916;SDS011;1973;50.518;7.318;2023-02-01T01:31:19;14.40;;;7.70;;
3916;SDS011;1973;50.518;7.318;2023-02-01T01:33:47;11.63;;;6.07;;
3916;SDS011;1973;50.518;7.318;2023-02-01T01:36:15;14.43;;;7.10;;
3916;SDS011;1973;50.518;7.318;2023-02-01T01:38:42;11.07;;;6.93;;
3916;SDS011;1973;50.518;7.318;2023-02-01T01:41:12;13.73;;;8.40;;
3916;SDS011;1973;50.518;7.318;2023-02-01T01:43:46;13.93;;;7.57;;
3916;SDS011;1973;50.518;7.318;2023-02-01T01:46:15;8.83;;;6.90;;
3916;SDS011;1973;50.518;7.318;2023-02-01T01:48:43;17.23;;;7.17;;
3916;SDS011;1973;50.518;7.318;2023-02-01T01:51:10;9.57;;;5.80;;
3916;SDS011;1973;50.518;7.318;2023-02-01T01:53:48;12.60;;;6.33;;
3916;SDS011;1973;50.518;7.318;2023-02-01T01:56:19;10.87;;;6.17;;
3916;SDS011;1973;50.518;7.318;2023-02-01T01:58:46;11.13;;;6.47;;
3916;SDS011;1973;50.518;7.318;2023-02-01T02:01:12;11.40;;;6.47;;
3916;SDS011;1973;50.518;7.318;2023-02-01T02:03:40;9.10;;;5.60;;
3916;SDS011;1973;50.518;7.318;2023-02-01T02:06:11;8.90;;;4.73;;
3916;SDS011;1973;50.518;7.318;2023-02-01T02:09:00;13.73;;;5.60;;
3916;SDS011;1973;50.518;7.318;2023-02-01T02:11:26;10.10;;;5.73;;
3916;SDS011;1973;50.518;7.318;2023-02-01T02:13:53;14.90;;;5.50;;
3916;SDS011;1973;50.518;7.318;2023-02-01T02:16:24;8.03;;;5.27;;
3916;SDS011;1973;50.518;7.318;2023-02-01T02:42:12;15.13;;;6.17;;
3916;SDS011;1973;50.518;7.318;2023-02-01T02:48:02;6.70;;;4.57;;
3916;SDS011;1973;50.518;7.318;2023-02-01T02:50:32;8.80;;;4.83;;
3916;SDS011;1973;50.518;7.318;2023-02-01T02:53:39;14.10;;;5.17;;
3916;SDS011;1973;50.518;7.318;2023-02-01T02:56:35;9.80;;;5.23;;
3916;SDS011;1973;50.518;7.318;2023-02-01T02:59:22;9.23;;;5.30;;
3916;SDS011;1973;50.518;7.318;2023-02-01T03:02:11;7.30;;;5.00;;
3916;SDS011;1973;50.518;7.318;2023-02-01T03:04:57;10.10;;;4.83;;
3916;SDS011;1973;50.518;7.318;2023-02-01T03:13:04;14.00;;;5.50;;
3916;SDS011;1973;50.518;7.318;2023-02-01T03:18:22;7.83;;;4.83;;
3916;SDS011;1973;50.518;7.318;2023-02-01T03:20:59;8.93;;;5.13;;
3916;SDS011;1973;50.518;7.318;2023-02-01T03:23:31;10.93;;;5.07;;
3916;SDS011;1973;50.518;7.318;2023-02-01T03:26:02;11.40;;;4.93;;
3916;SDS011;1973;50.518;7.318;2023-02-01T03:28:30;10.37;;;4.27;;
3916;SDS011;1973;50.518;7.318;2023-02-01T03:31:00;14.50;;;4.47;;
3916;SDS011;1973;50.518;7.318;2023-02-01T03:33:28;14.93;;;4.30;;
3916;SDS011;1973;50.518;7.318;2023-02-01T03:36:10;13.23;;;4.80;;
3916;SDS011;1973;50.518;7.318;2023-02-01T03:38:57;19.53;;;5.73;;
3916;SDS011;1973;50.518;7.318;2023-02-01T03:41:46;11.20;;;4.80;;
3916;SDS011;1973;50.518;7.318;2023-02-01T03:44:19;16.40;;;4.20;;
3916;SDS011;1973;50.518;7.318;2023-02-01T03:46:50;16.43;;;4.77;;
3916;SDS011;1973;50.518;7.318;2023-02-01T03:49:32;11.37;;;3.90;;
3916;SDS011;1973;50.518;7.318;2023-02-01T03:52:02;15.70;;;4.47;;
3916;SDS011;1973;50.518;7.318;2023-02-01T03:54:31;11.17;;;4.70;;
3916;SDS011;1973;50.518;7.318;2023-02-01T03:57:01;9.67;;;3.80;;
3916;SDS011;1973;50.518;7.318;2023-02-01T03:59:33;16.17;;;3.47;;
3916;SDS011;1973;50.518;7.318;2023-02-01T04:01:59;14.53;;;4.40;;
3916;SDS011;1973;50.518;7.318;2023-02-01T04:04:26;9.10;;;3.80;;
3916;SDS011;1973;50.518;7.318;2023-02-01T04:06:52;11.90;;;3.90;;
3916;SDS011;1973;50.518;7.318;2023-02-01T04:09:19;11.53;;;4.90;;
3916;SDS011;1973;50.518;7.318;2023-02-01T04:11:45;11.10;;;4.50;;
3916;SDS011;1973;50.518;7.318;2023-02-01T04:14:12;10.50;;;4.37;;
3916;SDS011;1973;50.518;7.318;2023-02-01T04:16:38;9.17;;;3.73;;
3916;SDS011;1973;50.518;7.318;2023-02-01T04:19:05;7.93;;;3.90;;
3916;SDS011;1973;50.518;7.318;2023-02-01T04:21:31;7.43;;;3.33;;
3916;SDS011;1973;50.518;7.318;2023-02-01T04:23:57;17.63;;;4.13;;
3916;SDS011;1973;50.518;7.318;2023-02-01T04:26:24;15.17;;;5.50;;
3916;SDS011;1973;50.518;7.318;2023-02-01T04:28:50;14.67;;;4.13;;
3916;SDS011;1973;50.518;7.318;2023-02-01T04:31:19;12.20;;;4.37;;
3916;SDS011;1973;50.518;7.318;2023-02-01T04:33:52;10.27;;;4.20;;
3916;SDS011;1973;50.518;7.318;2023-02-01T04:36:19;14.20;;;3.97;;
3916;SDS011;1973;50.518;7.318;2023-02-01T04:38:51;14.80;;;4.70;;
3916;SDS011;1973;50.518;7.318;2023-02-01T04:41:18;13.23;;;3.77;;
3916;SDS011;1973;50.518;7.318;2023-02-01T04:43:46;10.93;;;3.77;;
3916;SDS011;1973;50.518;7.318;2023-02-01T04:46:13;15.57;;;4.20;;
3916;SDS011;1973;50.518;7.318;2023-02-01T04:48:40;15.30;;;4.00;;
3916;SDS011;1973;50.518;7.318;2023-02-01T04:51:07;13.10;;;4.07;;
3916;SDS011;1973;50.518;7.318;2023-02-01T04:53:33;15.00;;;4.53;;
3916;SDS011;1973;50.518;7.318;2023-02-01T04:56:00;12.47;;;4.90;;
3916;SDS011;1973;50.518;7.318;2023-02-01T04:58:26;12.53;;;3.97;;
3916;SDS011;1973;50.518;7.318;2023-02-01T05:00:53;12.23;;;3.70;;
3916;SDS011;1973;50.518;7.318;2023-02-01T05:03:19;13.67;;;4.53;;
3916;SDS011;1973;50.518;7.318;2023-02-01T05:05:49;12.70;;;4.43;;
3916;SDS011;1973;50.518;7.318;2023-02-01T05:08:15;13.17;;;4.13;;
3916;SDS011;1973;50.518;7.318;2023-02-01T05:10:42;12.80;;;4.53;;
3916;SDS011;1973;50.518;7.318;2023-02-01T05:13:08;15.27;;;5.60;;
3916;SDS011;1973;50.518;7.318;2023-02-01T05:15:55;16.73;;;4.97;;
3916;SDS011;1973;50.518;7.318;2023-02-01T05:18:21;12.33;;;4.23;;
3916;SDS011;1973;50.518;7.318;2023-02-01T05:20:48;15.60;;;4.57;;
3916;SDS011;1973;50.518;7.318;2023-02-01T05:23:14;14.53;;;5.27;;
3916;SDS011;1973;50.518;7.318;2023-02-01T05:25:41;16.90;;;4.40;;
3916;SDS011;1973;50.518;7.318;2023-02-01T05:28:07;18.50;;;4.00;;
3916;SDS011;1973;50.518;7.318;2023-02-01T05:30:33;17.30;;;5.60;;
3916;SDS011;1973;50.518;7.318;2023-02-01T05:33:01;10.57;;;4.13;;
3916;SDS011;1973;50.518;7.318;2023-02-01T05:35:29;10.20;;;2.90;;
3916;SDS011;1973;50.518;7.318;2023-02-01T05:37:55;16.03;;;3.90;;
3916;SDS011;1973;50.518;7.318;2023-02-01T05:40:22;9.20;;;3.40;;
3916;SDS011;1973;50.518;7.318;2023-02-01T05:42:49;16.03;;;4.60;;
3916;SDS011;1973;50.518;7.318;2023-02-01T05:45:15;14.40;;;4.00;;
3916;SDS011;1973;50.518;7.318;2023-02-01T05:47:42;14.97;;;4.33;;
3916;SDS011;1973;50.518;7.318;2023-02-01T05:50:09;6.33;;;3.73;;
3916;SDS011;1973;50.518;7.318;2023-02-01T05:52:35;12.90;;;3.70;;
3916;SDS011;1973;50.518;7.318;2023-02-01T05:55:02;10.93;;;3.40;;
3916;SDS011;1973;50.518;7.318;2023-02-01T05:57:28;13.33;;;3.40;;
3916;SDS011;1973;50.518;7.318;2023-02-01T05:59:56;11.00;;;3.30;;
3916;SDS011;1973;50.518;7.318;2023-02-01T06:02:24;11.37;;;3.00;;
3916;SDS011;1973;50.518;7.318;2023-02-01T06:04:51;8.40;;;2.80;;
3916;SDS011;1973;50.518;7.318;2023-02-01T06:07:17;9.23;;;3.83;;
3916;SDS011;1973;50.518;7.318;2023-02-01T06:09:44;8.17;;;3.40;;
3916;SDS011;1973;50.518;7.318;2023-02-01T06:12:10;9.40;;;3.07;;
3916;SDS011;1973;50.518;7.318;2023-02-01T06:14:37;8.13;;;3.27;;
3916;SDS011;1973;50.518;7.318;2023-02-01T06:17:03;9.40;;;2.93;;
3916;SDS011;1973;50.518;7.318;2023-02-01T06:19:31;12.97;;;3.20;;
3916;SDS011;1973;50.518;7.318;2023-02-01T06:21:58;8.97;;;3.03;;
3916;SDS011;1973;50.518;7.318;2023-02-01T06:24:24;11.73;;;4.10;;
3916;SDS011;1973;50.518;7.318;2023-02-01T06:26:51;10.40;;;3.50;;
3916;SDS011;1973;50.518;7.318;2023-02-01T06:29:17;8.20;;;3.37;;
3916;SDS011;1973;50.518;7.318;2023-02-01T06:31:43;8.97;;;3.43;;
3916;SDS011;1973;50.518;7.318;2023-02-01T06:34:10;12.07;;;3.33;;
3916;SDS011;1973;50.518;7.318;2023-02-01T06:36:36;10.10;;;3.37;;
3916;SDS011;1973;50.518;7.318;2023-02-01T06:39:03;10.50;;;3.43;;
3916;SDS011;1973;50.518;7.318;2023-02-01T06:41:29;11.73;;;3.50;;
3916;SDS011;1973;50.518;7.318;2023-02-01T06:43:56;7.83;;;3.20;;
3916;SDS011;1973;50.518;7.318;2023-02-01T06:46:22;9.80;;;3.93;;
3916;SDS011;1973;50.518;7.318;2023-02-01T06:48:49;10.50;;;3.67;;
3916;SDS011;1973;50.518;7.318;2023-02-01T06:51:26;6.90;;;3.53;;
3916;SDS011;1973;50.518;7.318;2023-02-01T06:53:55;10.40;;;4.47;;
3916;SDS011;1973;50.518;7.318;2023-02-01T06:56:22;9.77;;;4.33;;
3916;SDS011;1973;50.518;7.318;2023-02-01T06:58:49;14.73;;;4.40;;
3916;SDS011;1973;50.518;7.318;2023-02-01T07:01:16;8.40;;;4.30;;
3916;SDS011;1973;50.518;7.318;2023-02-01T07:03:46;9.40;;;4.23;;
3916;SDS011;1973;50.518;7.318;2023-02-01T07:06:15;11.83;;;4.70;;
3916;SDS011;1973;50.518;7.318;2023-02-01T07:08:41;7.40;;;4.70;;
3916;SDS011;1973;50.518;7.318;2023-02-01T07:11:09;13.77;;;4.70;;
3916;SDS011;1973;50.518;7.318;2023-02-01T07:13:38;11.37;;;4.10;;
3916;SDS011;1973;50.518;7.318;2023-02-01T07:16:06;10.03;;;3.70;;
3916;SDS011;1973;50.518;7.318;2023-02-01T07:18:35;8.00;;;3.97;;
3916;SDS011;1973;50.518;7.318;2023-02-01T07:21:01;9.60;;;3.97;;
3916;SDS011;1973;50.518;7.318;2023-02-01T07:23:28;10.57;;;4.57;;
3916;SDS011;1973;50.518;7.318;2023-02-01T07:25:58;11.30;;;5.03;;
3916;SDS011;1973;50.518;7.318;2023-02-01T07:28:28;6.77;;;3.97;;
3916;SDS011;1973;50.518;7.318;2023-02-01T07:31:01;13.87;;;3.93;;
3916;SDS011;1973;50.518;7.318;2023-02-01T07:33:31;8.60;;;4.73;;
3916;SDS011;1973;50.518;7.318;2023-02-01T07:35:59;8.10;;;3.50;;
3916;SDS011;1973;50.518;7.318;2023-02-01T07:38:27;11.70;;;5.27;;
3916;SDS011;1973;50.518;7.318;2023-02-01T07:41:00;12.63;;;5.20;;
3916;SDS011;1973;50.518;7.318;2023-02-01T07:43:29;10.27;;;5.27;;
3916;SDS011;1973;50.518;7.318;2023-02-01T07:45:56;13.37;;;5.33;;
3916;SDS011;1973;50.518;7.318;2023-02-01T07:48:23;11.40;;;4.73;;
3916;SDS011;1973;50.518;7.318;2023-02-01T07:50:57;13.10;;;5.67;;
3916;SDS011;1973;50.518;7.318;2023-02-01T07:53:24;9.27;;;3.90;;
3916;SDS011;1973;50.518;7.318;2023-02-01T07:55:51;13.23;;;4.50;;
3916;SDS011;1973;50.518;7.318;2023-02-01T07:58:18;14.70;;;4.30;;
3916;SDS011;1973;50.518;7.318;2023-02-01T08:00:44;11.27;;;4.10;;
3916;SDS011;1973;50.518;7.318;2023-02-01T08:03:29;17.13;;;5.10;;
3916;SDS011;1973;50.518;7.318;2023-02-01T08:05:55;11.80;;;5.13;;
3916;SDS011;1973;50.518;7.318;2023-02-01T08:08:22;15.57;;;5.93;;
3916;SDS011;1973;50.518;7.318;2023-02-01T08:10:49;14.87;;;6.33;;
3916;SDS011;1973;50.518;7.318;2023-02-01T08:13:16;16.53;;;6.30;;
3916;SDS011;1973;50.518;7.318;2023-02-01T08:15:43;14.33;;;5.40;;
3916;SDS011;1973;50.518;7.318;2023-02-01T08:18:09;14.00;;;5.50;;
3916;SDS011;1973;50.518;7.318;2023-02-01T08:20:37;11.23;;;4.30;;
3916;SDS011;1973;50.518;7.318;2023-02-01T08:23:07;12.57;;;5.13;;
3916;SDS011;1973;50.518;7.318;2023-02-01T08:25:34;10.47;;;4.23;;
3916;SDS011;1973;50.518;7.318;2023-02-01T08:28:02;12.30;;;4.50;;
3916;SDS011;1973;50.518;7.318;2023-02-01T08:30:29;13.03;;;4.07;;
3916;SDS011;1973;50.518;7.318;2023-02-01T08:32:55;10.63;;;4.03;;
3916;SDS011;1973;50.518;7.318;2023-02-01T08:35:22;9.57;;;3.83;;
3916;SDS011;1973;50.518;7.318;2023-02-01T08:38:06;10.97;;;4.13;;
3916;SDS011;1973;50.518;7.318;2023-02-01T08:40:33;13.83;;;3.63;;
3916;SDS011;1973;50.518;7.318;2023-02-01T08:42:59;12.70;;;4.67;;
3916;SDS011;1973;50.518;7.318;2023-02-01T08:45:27;12.07;;;3.87;;
3916;SDS011;1973;50.518;7.318;2023-02-01T08:47:58;14.37;;;4.63;;
3916;SDS011;1973;50.518;7.318;2023-02-01T08:50:24;14.70;;;4.03;;
3916;SDS011;1973;50.518;7.318;2023-02-01T08:52:52;10.60;;;3.87;;
3916;SDS011;1973;50.518;7.318;2023-02-01T08:55:19;15.77;;;4.27;;
3916;SDS011;1973;50.518;7.318;2023-02-01T08:57:46;9.37;;;3.30;;
3916;SDS011;1973;50.518;7.318;2023-02-01T09:00:13;9.93;;;3.83;;
3916;SDS011;1973;50.518;7.318;2023-02-01T09:02:42;12.20;;;3.50;;
3916;SDS011;1973;50.518;7.318;2023-02-01T09:05:09;9.50;;;3.37;;
3916;SDS011;1973;50.518;7.318;2023-02-01T09:07:36;16.33;;;3.90;;
3916;SDS011;1973;50.518;7.318;2023-02-01T09:10:04;9.73;;;3.53;;
3916;SDS011;1973;50.518;7.318;2023-02-01T09:12:32;11.70;;;4.00;;
3916;SDS011;1973;50.518;7.318;2023-02-01T09:14:59;8.23;;;2.67;;
3916;SDS011;1973;50.518;7.318;2023-02-01T09:17:26;10.97;;;3.50;;
3916;SDS011;1973;50.518;7.318;2023-02-01T09:19:54;10.83;;;3.50;;
3916;SDS011;1973;50.518;7.318;2023-02-01T09:22:21;11.20;;;3.00;;
3916;SDS011;1973;50.518;7.318;2023-02-01T09:24:47;11.57;;;3.00;;
3916;SDS011;1973;50.518;7.318;2023-02-01T09:27:14;12.13;;;3.43;;
3916;SDS011;1973;50.518;7.318;2023-02-01T09:29:40;15.20;;;3.47;;
3916;SDS011;1973;50.518;7.318;2023-02-01T09:32:07;9.90;;;3.57;;
3916;SDS011;1973;50.518;7.318;2023-02-01T09:34:33;10.87;;;3.80;;
3916;SDS011;1973;50.518;7.318;2023-02-01T09:37:00;13.70;;;3.07;;
3916;SDS011;1973;50.518;7.318;2023-02-01T09:39:27;16.10;;;3.73;;
3916;SDS011;1973;50.518;7.318;2023-02-01T09:44:29;13.27;;;3.83;;
3916;SDS011;1973;50.518;7.318;2023-02-01T09:47:10;12.70;;;3.17;;
3916;SDS011;1973;50.518;7.318;2023-02-01T09:49:52;10.60;;;3.20;;
3916;SDS011;1973;50.518;7.318;2023-02-01T09:52:27;15.03;;;3.60;;
3916;SDS011;1973;50.518;7.318;2023-02-01T09:55:00;11.93;;;4.10;;
3916;SDS011;1973;50.518;7.318;2023-02-01T10:00:13;14.10;;;3.60;;
3916;SDS011;1973;50.518;7.318;2023-02-01T10:02:44;11.13;;;4.00;;
3916;SDS011;1973;50.518;7.318;2023-02-01T10:05:12;10.03;;;3.67;;
3916;SDS011;1973;50.518;7.318;2023-02-01T10:13:27;13.17;;;3.13;;
3916;SDS011;1973;50.518;7.318;2023-02-01T10:16:11;6.50;;;3.23;;
3916;SDS011;1973;50.518;7.318;2023-02-01T10:21:51;12.43;;;3.17;;
3916;SDS011;1973;50.518;7.318;2023-02-01T10:24:34;13.90;;;3.90;;
3916;SDS011;1973;50.518;7.318;2023-02-01T10:29:41;11.93;;;2.73;;
3916;SDS011;1973;50.518;7.318;2023-02-01T10:32:10;12.43;;;2.93;;
3916;SDS011;1973;50.518;7.318;2023-02-01T10:34:40;14.30;;;3.20;;
3916;SDS011;1973;50.518;7.318;2023-02-01T10:37:15;8.77;;;3.07;;
3916;SDS011;1973;50.518;7.318;2023-02-01T10:39:49;9.50;;;3.60;;
3916;SDS011;1973;50.518;7.318;2023-02-01T10:42:18;7.57;;;2.40;;
3916;SDS011;1973;50.518;7.318;2023-02-01T10:44:48;12.33;;;3.10;;
3916;SDS011;1973;50.518;7.318;2023-02-01T10:47:14;8.90;;;3.23;;
3916;SDS011;1973;50.518;7.318;2023-02-01T10:52:48;7.63;;;3.70;;
3916;SDS011;1973;50.518;7.318;2023-02-01T10:55:32;9.33;;;3.40;;
3916;SDS011;1973;50.518;7.318;2023-02-01T10:58:10;12.03;;;3.70;;
3916;SDS011;1973;50.518;7.318;2023-02-01T11:00:43;11.80;;;3.90;;
3916;SDS011;1973;50.518;7.318;2023-02-01T11:03:28;10.77;;;3.83;;
3916;SDS011;1973;50.518;7.318;2023-02-01T11:06:03;15.57;;;3.87;;
3916;SDS011;1973;50.518;7.318;2023-02-01T11:08:45;9.93;;;3.40;;
3916;SDS011;1973;50.518;7.318;2023-02-01T11:11:14;7.00;;;3.60;;
3916;SDS011;1973;50.518;7.318;2023-02-01T11:13:41;13.43;;;3.07;;
3916;SDS011;1973;50.518;7.318;2023-02-01T11:16:11;9.03;;;2.40;;
3916;SDS011;1973;50.518;7.318;2023-02-01T11:18:39;12.77;;;4.00;;
3916;SDS011;1973;50.518;7.318;2023-02-01T11:21:07;10.87;;;3.33;;
3916;SDS011;1973;50.518;7.318;2023-02-01T11:23:39;10.47;;;2.90;;
3916;SDS011;1973;50.518;7.318;2023-02-01T11:26:14;8.67;;;3.13;;
3916;SDS011;1973;50.518;7.318;2023-02-01T11:29:32;12.33;;;2.90;;
3916;SDS011;1973;50.518;7.318;2023-02-01T11:31:40;11.40;;;4.37;;
3916;SDS011;1973;50.518;7.318;2023-02-01T11:34:13;12.27;;;3.90;;
3916;SDS011;1973;50.518;7.318;2023-02-01T11:36:42;11.67;;;3.70;;
3916;SDS011;1973;50.518;7.318;2023-02-01T11:41:42;8.63;;;2.97;;
3916;SDS011;1973;50.518;7.318;2023-02-01T11:44:31;13.37;;;3.77;;
3916;SDS011;1973;50.518;7.318;2023-02-01T11:47:19;10.40;;;3.53;;
3916;SDS011;1973;50.518;7.318;2023-02-01T11:49:51;10.60;;;3.40;;
3916;SDS011;1973;50.518;7.318;2023-02-01T11:52:36;9.77;;;3.20;;
3916;SDS011;1973;50.518;7.318;2023-02-01T12:03:33;8.07;;;3.10;;
3916;SDS011;1973;50.518;7.318;2023-02-01T12:13:52;9.97;;;2.90;;
3916;SDS011;1973;50.518;7.318;2023-02-01T12:16:32;8.53;;;2.20;;
3916;SDS011;1973;50.518;7.318;2023-02-01T12:21:53;6.77;;;2.37;;
3916;SDS011;1973;50.518;7.318;2023-02-01T12:24:47;12.10;;;2.20;;
3916;SDS011;1973;50.518;7.318;2023-02-01T12:30:02;11.77;;;3.13;;
3916;SDS011;1973;50.518;7.318;2023-02-01T12:33:13;4.83;;;2.50;;
3916;SDS011;1973;50.518;7.318;2023-02-01T12:41:34;10.80;;;2.80;;
3916;SDS011;1973;50.518;7.318;2023-02-01T12:46:52;7.80;;;2.40;;
3916;SDS011;1973;50.518;7.318;2023-02-01T12:52:16;6.27;;;2.57;;
3916;SDS011;1973;50.518;7.318;2023-02-01T12:54:59;10.00;;;3.00;;
3916;SDS011;1973;50.518;7.318;2023-02-01T12:57:33;6.40;;;2.40;;
3916;SDS011;1973;50.518;7.318;2023-02-01T13:02:40;9.10;;;2.43;;
3916;SDS011;1973;50.518;7.318;2023-02-01T13:07:43;7.53;;;3.00;;
3916;SDS011;1973;50.518;7.318;2023-02-01T13:10:18;9.00;;;2.47;;
3916;SDS011;1973;50.518;7.318;2023-02-01T13:12:59;9.87;;;2.50;;
3916;SDS011;1973;50.518;7.318;2023-02-01T13:15:39;8.20;;;2.40;;
3916;SDS011;1973;50.518;7.318;2023-02-01T13:18:13;9.90;;;2.83;;
3916;SDS011;1973;50.518;7.318;2023-02-01T13:23:23;6.63;;;2.23;;
3916;SDS011;1973;50.518;7.318;2023-02-01T13:25:53;7.83;;;3.17;;
3916;SDS011;1973;50.518;7.318;2023-02-01T13:31:29;7.63;;;3.40;;
3916;SDS011;1973;50.518;7.318;2023-02-01T13:39:55;8.67;;;3.00;;
3916;SDS011;1973;50.518;7.318;2023-02-01T13:42:42;9.10;;;2.30;;
3916;SDS011;1973;50.518;7.318;2023-02-01T13:45:20;9.70;;;2.90;;
3916;SDS011;1973;50.518;7.318;2023-02-01T13:47:52;8.23;;;2.87;;
3916;SDS011;1973;50.518;7.318;2023-02-01T13:50:34;7.77;;;2.40;;
3916;SDS011;1973;50.518;7.318;2023-02-01T13:55:46;8.87;;;2.90;;
3916;SDS011;1973;50.518;7.318;2023-02-01T13:58:35;7.47;;;2.50;;
3916;SDS011;1973;50.518;7.318;2023-02-01T14:11:38;8.40;;;2.80;;
3916;SDS011;1973;50.518;7.318;2023-02-01T14:16:43;9.07;;;2.40;;
3916;SDS011;1973;50.518;7.318;2023-02-01T14:21:54;6.37;;;1.93;;
3916;SDS011;1973;50.518;7.318;2023-02-01T14:24:27;8.80;;;2.60;;
3916;SDS011;1973;50.518;7.318;2023-02-01T14:26:57;7.87;;;2.73;;
3916;SDS011;1973;50.518;7.318;2023-02-01T14:45:15;11.43;;;3.43;;
3916;SDS011;1973;50.518;7.318;2023-02-01T14:47:54;5.60;;;2.30;;
3916;SDS011;1973;50.518;7.318;2023-02-01T15:00:50;5.40;;;1.53;;
3916;SDS011;1973;50.518;7.318;2023-02-01T15:05:55;7.73;;;2.20;;
3916;SDS011;1973;50.518;7.318;2023-02-01T15:08:25;5.80;;;1.90;;
3916;SDS011;1973;50.518;7.318;2023-02-01T15:10:56;12.73;;;3.00;;
3916;SDS011;1973;50.518;7.318;2023-02-01T15:13:27;9.03;;;2.40;;
3916;SDS011;1973;50.518;7.318;2023-02-01T15:18:40;9.03;;;3.10;;
3916;SDS011;1973;50.518;7.318;2023-02-01T15:24:13;5.93;;;1.90;;
3916;SDS011;1973;50.518;7.318;2023-02-01T15:26:40;5.50;;;1.90;;
3916;SDS011;1973;50.518;7.318;2023-02-01T15:29:13;5.23;;;2.10;;
3916;SDS011;1973;50.518;7.318;2023-02-01T15:31:47;6.10;;;2.77;;
3916;SDS011;1973;50.518;7.318;2023-02-01T15:34:16;7.70;;;2.37;;
3916;SDS011;1973;50.518;7.318;2023-02-01T15:36:44;7.17;;;2.00;;
3916;SDS011;1973;50.518;7.318;2023-02-01T15:39:27;6.57;;;2.10;;
3916;SDS011;1973;50.518;7.318;2023-02-01T15:42:10;6.53;;;2.00;;
3916;SDS011;1973;50.518;7.318;2023-02-01T15:44:45;11.10;;;2.70;;
3916;SDS011;1973;50.518;7.318;2023-02-01T15:47:19;6.30;;;2.03;;
3916;SDS011;1973;50.518;7.318;2023-02-01T15:49:51;7.90;;;2.03;;
3916;SDS011;1973;50.518;7.318;2023-02-01T15:54:51;8.53;;;3.23;;
3916;SDS011;1973;50.518;7.318;2023-02-01T15:57:28;10.53;;;2.40;;
3916;SDS011;1973;50.518;7.318;2023-02-01T15:59:59;4.67;;;2.10;;
3916;SDS011;1973;50.518;7.318;2023-02-01T16:05:05;5.43;;;2.13;;
3916;SDS011;1973;50.518;7.318;2023-02-01T16:07:57;5.77;;;1.70;;
3916;SDS011;1973;50.518;7.318;2023-02-01T16:10:46;6.33;;;2.43;;
3916;SDS011;1973;50.518;7.318;2023-02-01T16:13:15;5.30;;;2.10;;
3916;SDS011;1973;50.518;7.318;2023-02-01T16:15:43;7.83;;;1.67;;
3916;SDS011;1973;50.518;7.318;2023-02-01T16:18:10;9.37;;;3.03;;
3916;SDS011;1973;50.518;7.318;2023-02-01T16:20:38;6.67;;;2.30;;
3916;SDS011;1973;50.518;7.318;2023-02-01T16:23:06;8.07;;;2.70;;
3916;SDS011;1973;50.518;7.318;2023-02-01T16:25:34;6.57;;;2.33;;
3916;SDS011;1973;50.518;7.318;2023-02-01T16:28:02;7.23;;;2.10;;
3916;SDS011;1973;50.518;7.318;2023-02-01T16:30:28;8.30;;;2.27;;
3916;SDS011;1973;50.518;7.318;2023-02-01T16:32:55;7.13;;;1.83;;
3916;SDS011;1973;50.518;7.318;2023-02-01T16:35:30;7.90;;;2.73;;
3916;SDS011;1973;50.518;7.318;2023-02-01T16:38:02;8.57;;;2.30;;
3916;SDS011;1973;50.518;7.318;2023-02-01T16:40:34;9.70;;;3.00;;
3916;SDS011;1973;50.518;7.318;2023-02-01T16:43:01;6.97;;;2.77;;
3916;SDS011;1973;50.518;7.318;2023-02-01T16:45:28;5.97;;;2.70;;
3916;SDS011;1973;50.518;7.318;2023-02-01T16:47:54;7.60;;;2.60;;
3916;SDS011;1973;50.518;7.318;2023-02-01T16:50:24;9.13;;;3.10;;
3916;SDS011;1973;50.518;7.318;2023-02-01T16:52:52;13.97;;;3.90;;
3916;SDS011;1973;50.518;7.318;2023-02-01T16:55:20;5.27;;;2.67;;
3916;SDS011;1973;50.518;7.318;2023-02-01T16:57:48;7.70;;;3.50;;
3916;SDS011;1973;50.518;7.318;2023-02-01T17:00:15;10.70;;;3.70;;
3916;SDS011;1973;50.518;7.318;2023-02-01T17:02:50;6.37;;;2.90;;
3916;SDS011;1973;50.518;7.318;2023-02-01T17:05:17;20.47;;;4.20;;
3916;SDS011;1973;50.518;7.318;2023-02-01T17:07:44;6.70;;;3.20;;
3916;SDS011;1973;50.518;7.318;2023-02-01T17:10:16;10.90;;;3.43;;
3916;SDS011;1973;50.518;7.318;2023-02-01T17:12:58;10.60;;;2.80;;
3916;SDS011;1973;50.518;7.318;2023-02-01T17:15:26;10.05;;;3.17;;
3916;SDS011;1973;50.518;7.318;2023-02-01T17:17:55;7.77;;;2.60;;
3916;SDS011;1973;50.518;7.318;2023-02-01T17:20:24;8.63;;;3.33;;
3916;SDS011;1973;50.518;7.318;2023-02-01T17:22:54;12.33;;;3.50;;
3916;SDS011;1973;50.518;7.318;2023-02-01T17:25:21;14.23;;;4.00;;
3916;SDS011;1973;50.518;7.318;2023-02-01T17:27:48;6.60;;;3.70;;
3916;SDS011;1973;50.518;7.318;2023-02-01T17:30:15;13.30;;;3.57;;
3916;SDS011;1973;50.518;7.318;2023-02-01T17:32:42;10.90;;;4.30;;
3916;SDS011;1973;50.518;7.318;2023-02-01T17:35:22;11.97;;;4.43;;
3916;SDS011;1973;50.518;7.318;2023-02-01T17:37:51;8.20;;;3.30;;
3916;SDS011;1973;50.518;7.318;2023-02-01T17:40:18;14.97;;;4.00;;
3916;SDS011;1973;50.518;7.318;2023-02-01T17:42:45;10.83;;;3.50;;
3916;SDS011;1973;50.518;7.318;2023-02-01T17:47:48;14.10;;;4.47;;
3916;SDS011;1973;50.518;7.318;2023-02-01T17:50:14;9.97;;;3.70;;
3916;SDS011;1973;50.518;7.318;2023-02-01T17:52:41;10.10;;;3.90;;
3916;SDS011;1973;50.518;7.318;2023-02-01T17:55:15;9.90;;;2.63;;
3916;SDS011;1973;50.518;7.318;2023-02-01T17:57:44;7.23;;;3.40;;
3916;SDS011;1973;50.518;7.318;2023-02-01T18:00:10;10.83;;;3.33;;
3916;SDS011;1973;50.518;7.318;2023-02-01T18:02:38;8.60;;;3.40;;
3916;SDS011;1973;50.518;7.318;2023-02-01T18:05:17;7.30;;;3.33;;
3916;SDS011;1973;50.518;7.318;2023-02-01T18:07:49;11.27;;;3.47;;
3916;SDS011;1973;50.518;7.318;2023-02-01T18:10:16;11.43;;;3.73;;
3916;SDS011;1973;50.518;7.318;2023-02-01T18:12:42;8.03;;;3.10;;
3916;SDS011;1973;50.518;7.318;2023-02-01T18:15:19;7.23;;;3.27;;